createdAt,value
2017-09-06T00:00:25.602Z,20.31
2017-09-06T00:00:57.285Z,20.31
2017-09-06T00:01:29.234Z,20.31
2017-09-06T00:02:01.183Z,20.30
2017-09-06T00:02:33.132Z,20.31
2017-09-06T00:03:04.969Z,20.30
2017-09-06T00:03:36.723Z,20.30
2017-09-06T00:04:08.377Z,20.31
2017-09-06T00:04:40.025Z,20.30
2017-09-06T00:05:11.675Z,20.31
2017-09-06T00:05:43.321Z,20.30
2017-09-06T00:06:14.965Z,20.30
2017-09-06T00:06:46.613Z,20.29
2017-09-06T00:07:18.261Z,20.30
2017-09-06T00:07:50.156Z,20.30
2017-09-06T00:08:22.117Z,20.28
2017-09-06T00:08:53.765Z,20.27
2017-09-06T00:09:25.409Z,20.28
2017-09-06T00:09:57.300Z,20.28
2017-09-06T00:10:28.950Z,20.28
2017-09-06T00:11:00.632Z,20.28
2017-09-06T00:11:32.581Z,20.28
2017-09-06T00:12:04.418Z,20.27
2017-09-06T00:12:36.171Z,20.28
2017-09-06T00:13:07.821Z,20.28
2017-09-06T00:13:39.465Z,20.29
2017-09-06T00:14:11.117Z,20.29
2017-09-06T00:14:42.766Z,20.29
2017-09-06T00:15:14.457Z,20.27
2017-09-06T00:15:46.331Z,20.26
2017-09-06T00:16:17.985Z,20.28
2017-09-06T00:16:49.641Z,20.28
2017-09-06T00:17:21.503Z,20.27
2017-09-06T00:17:53.149Z,20.28
2017-09-06T00:18:24.801Z,20.25
2017-09-06T00:18:56.448Z,20.26
2017-09-06T00:19:28.130Z,20.25
2017-09-06T00:19:59.782Z,20.24
2017-09-06T00:20:31.430Z,20.25
2017-09-06T00:21:03.084Z,20.25
2017-09-06T00:21:34.725Z,20.24
2017-09-06T00:22:06.369Z,20.22
2017-09-06T00:22:38.064Z,20.23
2017-09-06T00:23:09.835Z,20.24
2017-09-06T00:23:41.481Z,20.24
2017-09-06T00:24:13.133Z,20.24
2017-09-06T00:24:44.778Z,20.23
2017-09-06T00:25:16.418Z,20.25
2017-09-06T00:25:48.065Z,20.26
2017-09-06T00:26:19.706Z,20.26
2017-09-06T00:26:51.397Z,20.25
2017-09-06T00:27:23.066Z,20.24
2017-09-06T00:27:54.945Z,20.25
2017-09-06T00:28:26.658Z,20.26
2017-09-06T00:28:58.606Z,20.27
2017-09-06T00:29:30.257Z,20.25
2017-09-06T00:30:01.901Z,20.25
2017-09-06T00:30:33.545Z,20.25
2017-09-06T00:31:05.194Z,20.25
2017-09-06T00:31:36.838Z,20.25
2017-09-06T00:32:08.481Z,20.24
2017-09-06T00:32:40.307Z,20.24
2017-09-06T00:33:12.049Z,20.22
2017-09-06T00:33:43.879Z,20.21
2017-09-06T00:34:15.640Z,20.23
2017-09-06T00:34:47.289Z,20.24
2017-09-06T00:35:18.941Z,20.23
2017-09-06T00:35:50.589Z,20.23
2017-09-06T00:36:22.237Z,20.23
2017-09-06T00:36:53.885Z,20.23
2017-09-06T00:37:25.800Z,20.25
2017-09-06T00:37:57.449Z,20.26
2017-09-06T00:38:29.097Z,20.27
2017-09-06T00:39:00.745Z,20.26
2017-09-06T00:39:32.388Z,20.27
2017-09-06T00:40:04.037Z,20.29
2017-09-06T00:40:35.677Z,20.29
2017-09-06T00:41:07.322Z,20.29
2017-09-06T00:41:38.965Z,20.28
2017-09-06T00:42:10.604Z,20.28
2017-09-06T00:42:42.478Z,20.28
2017-09-06T00:43:14.129Z,20.28
2017-09-06T00:43:45.782Z,20.28
2017-09-06T00:44:17.452Z,20.28
2017-09-06T00:44:49.105Z,20.28
2017-09-06T00:45:20.757Z,20.29
2017-09-06T00:45:52.683Z,20.28
2017-09-06T00:46:24.334Z,20.29
2017-09-06T00:46:55.979Z,20.26
2017-09-06T00:47:27.637Z,20.28
2017-09-06T00:47:59.278Z,20.27
2017-09-06T00:48:30.917Z,20.27
2017-09-06T00:49:02.842Z,20.28
2017-09-06T00:49:34.490Z,20.27
2017-09-06T00:50:06.134Z,20.28
2017-09-06T00:50:37.777Z,20.28
2017-09-06T00:51:09.422Z,20.28
2017-09-06T00:51:41.073Z,20.26
2017-09-06T00:52:12.717Z,20.26
2017-09-06T00:52:44.366Z,20.26
2017-09-06T00:53:16.010Z,20.26
2017-09-06T00:53:47.653Z,20.26
2017-09-06T00:54:19.297Z,20.27
2017-09-06T00:54:50.941Z,20.26
2017-09-06T00:55:22.581Z,20.25
2017-09-06T00:55:54.225Z,20.26
2017-09-06T00:56:26.136Z,20.26
2017-09-06T00:56:57.960Z,20.26
2017-09-06T00:57:29.728Z,20.25
2017-09-06T00:58:01.378Z,20.25
2017-09-06T00:58:33.021Z,20.26
2017-09-06T00:59:04.665Z,20.25
2017-09-06T00:59:36.309Z,20.25
2017-09-06T01:00:07.953Z,20.25
2017-09-06T01:00:39.593Z,20.25
2017-09-06T01:01:11.238Z,20.26
2017-09-06T01:01:43.169Z,20.27
2017-09-06T01:02:14.821Z,20.27
2017-09-06T01:02:46.469Z,20.27
2017-09-06T01:03:18.117Z,20.26
2017-09-06T01:03:49.757Z,20.27
2017-09-06T01:04:21.405Z,20.27
2017-09-06T01:04:53.045Z,20.26
2017-09-06T01:05:24.685Z,20.26
2017-09-06T01:05:56.333Z,20.27
2017-09-06T01:06:27.981Z,20.26
2017-09-06T01:06:59.831Z,20.24
2017-09-06T01:07:31.477Z,20.24
2017-09-06T01:08:03.118Z,20.23
2017-09-06T01:08:34.766Z,20.23
2017-09-06T01:09:06.417Z,20.24
2017-09-06T01:09:38.065Z,20.25
2017-09-06T01:10:09.747Z,20.26
2017-09-06T01:10:41.570Z,20.26
2017-09-06T01:11:13.338Z,20.27
2017-09-06T01:11:45.005Z,20.27
2017-09-06T01:12:16.891Z,20.25
2017-09-06T01:12:48.573Z,20.26
2017-09-06T01:13:20.213Z,20.27
2017-09-06T01:13:51.861Z,20.25
2017-09-06T01:14:23.505Z,20.25
2017-09-06T01:14:55.153Z,20.26
2017-09-06T01:15:26.793Z,20.26
2017-09-06T01:15:58.437Z,20.25
2017-09-06T01:16:30.077Z,20.26
2017-09-06T01:17:01.721Z,20.25
2017-09-06T01:17:33.575Z,20.24
2017-09-06T01:18:05.221Z,20.25
2017-09-06T01:18:36.865Z,20.25
2017-09-06T01:19:08.517Z,20.26
2017-09-06T01:19:40.158Z,20.26
2017-09-06T01:20:11.805Z,20.25
2017-09-06T01:20:43.507Z,20.24
2017-09-06T01:21:15.157Z,20.25
2017-09-06T01:21:46.797Z,20.25
2017-09-06T01:22:18.445Z,20.25
2017-09-06T01:22:50.150Z,20.24
2017-09-06T01:23:22.023Z,20.24
2017-09-06T01:23:53.907Z,20.24
2017-09-06T01:24:25.549Z,20.23
2017-09-06T01:24:57.193Z,20.22
2017-09-06T01:25:28.833Z,20.24
2017-09-06T01:26:00.476Z,20.23
2017-09-06T01:26:32.117Z,20.22
2017-09-06T01:27:03.770Z,20.23
2017-09-06T01:27:35.466Z,20.23
2017-09-06T01:28:07.415Z,20.22
2017-09-06T01:28:39.368Z,20.21
2017-09-06T01:29:11.017Z,20.21
2017-09-06T01:29:42.661Z,20.22
2017-09-06T01:30:14.484Z,20.22
2017-09-06T01:30:46.138Z,20.22
2017-09-06T01:31:17.881Z,20.21
2017-09-06T01:31:49.830Z,20.22
2017-09-06T01:32:21.478Z,20.23
2017-09-06T01:32:53.133Z,20.23
2017-09-06T01:33:24.773Z,20.23
2017-09-06T01:33:56.657Z,20.24
2017-09-06T01:34:28.297Z,20.23
2017-09-06T01:34:59.989Z,20.24
2017-09-06T01:35:31.637Z,20.24
2017-09-06T01:36:03.281Z,20.25
2017-09-06T01:36:34.925Z,20.24
2017-09-06T01:37:06.570Z,20.23
2017-09-06T01:37:38.213Z,20.23
2017-09-06T01:38:09.853Z,20.23
2017-09-06T01:38:41.498Z,20.23
2017-09-06T01:39:13.386Z,20.24
2017-09-06T01:39:45.033Z,20.24
2017-09-06T01:40:16.681Z,20.25
2017-09-06T01:40:48.329Z,20.24
2017-09-06T01:41:19.996Z,20.25
2017-09-06T01:41:51.948Z,20.24
2017-09-06T01:42:23.597Z,20.25
2017-09-06T01:42:55.243Z,20.25
2017-09-06T01:43:26.894Z,20.24
2017-09-06T01:43:58.537Z,20.24
2017-09-06T01:44:30.233Z,20.24
2017-09-06T01:45:02.107Z,20.24
2017-09-06T01:45:33.822Z,20.23
2017-09-06T01:46:05.697Z,20.23
2017-09-06T01:46:37.645Z,20.22
2017-09-06T01:47:09.595Z,20.22
2017-09-06T01:47:41.248Z,20.22
2017-09-06T01:48:12.897Z,20.23
2017-09-06T01:48:44.542Z,20.22
2017-09-06T01:49:16.185Z,20.22
2017-09-06T01:49:47.833Z,20.21
2017-09-06T01:50:19.477Z,20.21
2017-09-06T01:50:51.352Z,20.21
2017-09-06T01:51:23.038Z,20.22
2017-09-06T01:51:54.987Z,20.22
2017-09-06T01:52:26.936Z,20.21
2017-09-06T01:52:58.633Z,20.21
2017-09-06T01:53:30.278Z,20.22
2017-09-06T01:54:01.925Z,20.22
2017-09-06T01:54:33.811Z,20.21
2017-09-06T01:55:05.765Z,20.21
2017-09-06T01:55:37.409Z,20.21
2017-09-06T01:56:09.057Z,20.22
2017-09-06T01:56:40.700Z,20.23
2017-09-06T01:57:12.349Z,20.23
2017-09-06T01:57:44.277Z,20.23
2017-09-06T01:58:15.925Z,20.22
2017-09-06T01:58:47.569Z,20.23
2017-09-06T01:59:19.216Z,20.22
2017-09-06T01:59:50.865Z,20.21
2017-09-06T02:00:22.505Z,20.21
2017-09-06T02:00:54.150Z,20.21
2017-09-06T02:01:25.794Z,20.22
2017-09-06T02:01:57.442Z,20.22
2017-09-06T02:02:29.361Z,20.21
2017-09-06T02:03:01.054Z,20.21
2017-09-06T02:03:32.705Z,20.21
2017-09-06T02:04:04.349Z,20.22
2017-09-06T02:04:36.212Z,20.21
2017-09-06T02:05:07.878Z,20.22
2017-09-06T02:05:39.525Z,20.20
2017-09-06T02:06:11.170Z,20.19
2017-09-06T02:06:42.817Z,20.19
2017-09-06T02:07:14.461Z,20.19
2017-09-06T02:07:46.113Z,20.19
2017-09-06T02:08:17.757Z,20.20
2017-09-06T02:08:49.414Z,20.20
2017-09-06T02:09:21.061Z,20.20
2017-09-06T02:09:52.712Z,20.20
2017-09-06T02:10:24.361Z,20.20
2017-09-06T02:10:56.005Z,20.21
2017-09-06T02:11:27.888Z,20.20
2017-09-06T02:11:59.538Z,20.20
2017-09-06T02:12:31.176Z,20.20
2017-09-06T02:13:02.826Z,20.20
2017-09-06T02:13:34.469Z,20.21
2017-09-06T02:14:06.310Z,20.22
2017-09-06T02:14:37.956Z,20.22
2017-09-06T02:15:09.688Z,20.23
2017-09-06T02:15:41.553Z,20.24
2017-09-06T02:16:13.201Z,20.23
2017-09-06T02:16:44.845Z,20.24
2017-09-06T02:17:16.485Z,20.23
2017-09-06T02:17:48.129Z,20.21
2017-09-06T02:18:19.773Z,20.23
2017-09-06T02:18:51.417Z,20.22
2017-09-06T02:19:23.058Z,20.24
2017-09-06T02:19:54.698Z,20.24
2017-09-06T02:20:26.415Z,20.23
2017-09-06T02:20:58.363Z,20.23
2017-09-06T02:21:30.013Z,20.23
2017-09-06T02:22:01.661Z,20.23
2017-09-06T02:22:33.313Z,20.23
2017-09-06T02:23:04.960Z,20.24
2017-09-06T02:23:36.880Z,20.24
2017-09-06T02:24:08.729Z,20.23
2017-09-06T02:24:40.377Z,20.24
2017-09-06T02:25:12.021Z,20.25
2017-09-06T02:25:43.673Z,20.25
2017-09-06T02:26:15.317Z,20.24
2017-09-06T02:26:46.966Z,20.25
2017-09-06T02:27:18.611Z,20.25
2017-09-06T02:27:50.323Z,20.25
2017-09-06T02:28:21.973Z,20.24
2017-09-06T02:28:53.620Z,20.23
2017-09-06T02:29:25.265Z,20.22
2017-09-06T02:29:56.904Z,20.21
2017-09-06T02:30:28.545Z,20.20
2017-09-06T02:31:00.193Z,20.20
2017-09-06T02:31:31.837Z,20.20
2017-09-06T02:32:03.485Z,20.21
2017-09-06T02:32:35.129Z,20.20
2017-09-06T02:33:07.003Z,20.20
2017-09-06T02:33:40.530Z,20.20
2017-09-06T02:34:13.713Z,20.18
2017-09-06T02:34:45.364Z,20.19
2017-09-06T02:35:17.005Z,20.19
2017-09-06T02:35:48.942Z,20.19
2017-09-06T02:36:20.587Z,20.18
2017-09-06T02:36:52.239Z,20.19
2017-09-06T02:37:23.885Z,20.19
2017-09-06T02:37:55.763Z,20.20
2017-09-06T02:38:27.473Z,20.20
2017-09-06T02:38:59.121Z,20.21
2017-09-06T02:39:30.765Z,20.20
2017-09-06T02:40:02.414Z,20.20
2017-09-06T02:40:34.061Z,20.19
2017-09-06T02:41:05.701Z,20.18
2017-09-06T02:41:37.341Z,20.19
2017-09-06T02:42:08.988Z,20.19
2017-09-06T02:42:40.637Z,20.19
2017-09-06T02:43:12.282Z,20.20
2017-09-06T02:43:44.172Z,20.21
2017-09-06T02:44:16.137Z,20.23
2017-09-06T02:44:47.968Z,20.24
2017-09-06T02:45:19.727Z,20.25
2017-09-06T02:45:51.677Z,20.24
2017-09-06T02:46:23.626Z,20.25
2017-09-06T02:46:55.575Z,20.25
2017-09-06T02:47:27.232Z,20.25
2017-09-06T02:47:58.890Z,20.26
2017-09-06T02:48:30.534Z,20.25
2017-09-06T02:49:02.186Z,20.25
2017-09-06T02:49:33.829Z,20.25
2017-09-06T02:50:05.468Z,20.24
2017-09-06T02:50:37.110Z,20.24
2017-09-06T02:51:08.757Z,20.25
2017-09-06T02:51:40.409Z,20.25
2017-09-06T02:52:12.053Z,20.26
2017-09-06T02:52:43.697Z,20.26
2017-09-06T02:53:15.544Z,20.25
2017-09-06T02:53:47.426Z,20.25
2017-09-06T02:54:19.176Z,20.25
2017-09-06T02:54:50.825Z,20.24
2017-09-06T02:55:22.470Z,20.23
2017-09-06T02:55:54.120Z,20.23
2017-09-06T02:56:26.051Z,20.23
2017-09-06T02:56:57.741Z,20.23
2017-09-06T02:57:29.393Z,20.23
2017-09-06T02:58:01.175Z,20.22
2017-09-06T02:58:32.822Z,20.21
2017-09-06T02:59:04.482Z,20.21
2017-09-06T02:59:36.210Z,20.20
2017-09-06T03:00:07.853Z,20.20
2017-09-06T03:00:39.503Z,20.21
2017-09-06T03:01:11.146Z,20.21
2017-09-06T03:01:42.793Z,20.21
2017-09-06T03:02:14.439Z,20.21
2017-09-06T03:02:46.081Z,20.22
2017-09-06T03:03:17.721Z,20.22
2017-09-06T03:03:49.370Z,20.22
2017-09-06T03:04:21.017Z,20.22
2017-09-06T03:04:52.936Z,20.21
2017-09-06T03:05:24.885Z,20.22
2017-09-06T03:05:56.533Z,20.22
2017-09-06T03:06:28.178Z,20.21
2017-09-06T03:06:59.825Z,20.20
2017-09-06T03:07:31.467Z,20.20
2017-09-06T03:08:03.109Z,20.21
2017-09-06T03:08:34.753Z,20.22
2017-09-06T03:09:06.398Z,20.21
2017-09-06T03:09:38.042Z,20.22
2017-09-06T03:10:09.734Z,20.21
2017-09-06T03:10:41.612Z,20.21
2017-09-06T03:11:13.265Z,20.20
2017-09-06T03:11:45.202Z,20.19
2017-09-06T03:12:16.845Z,20.18
2017-09-06T03:12:48.500Z,20.18
2017-09-06T03:13:20.165Z,20.19
2017-09-06T03:13:51.809Z,20.18
2017-09-06T03:14:23.457Z,20.19
2017-09-06T03:14:55.101Z,20.20
2017-09-06T03:15:26.749Z,20.20
2017-09-06T03:15:58.398Z,20.21
2017-09-06T03:16:30.287Z,20.22
2017-09-06T03:17:01.993Z,20.21
2017-09-06T03:17:33.877Z,20.21
2017-09-06T03:18:05.720Z,20.20
2017-09-06T03:18:37.468Z,20.21
2017-09-06T03:19:09.417Z,20.20
2017-09-06T03:19:41.366Z,20.20
2017-09-06T03:20:13.016Z,20.20
2017-09-06T03:20:44.662Z,20.20
2017-09-06T03:21:16.491Z,20.19
2017-09-06T03:21:48.241Z,20.20
2017-09-06T03:22:19.933Z,20.19
2017-09-06T03:22:51.581Z,20.20
2017-09-06T03:23:23.226Z,20.20
2017-09-06T03:23:54.871Z,20.21
2017-09-06T03:24:26.565Z,20.20
2017-09-06T03:24:58.225Z,20.20
2017-09-06T03:25:29.873Z,20.20
2017-09-06T03:26:01.517Z,20.20
2017-09-06T03:26:33.161Z,20.21
2017-09-06T03:27:04.809Z,20.20
2017-09-06T03:27:36.452Z,20.19
2017-09-06T03:28:08.098Z,20.19
2017-09-06T03:28:39.748Z,20.18
2017-09-06T03:29:11.397Z,20.18
2017-09-06T03:29:43.484Z,20.19
2017-09-06T03:30:15.135Z,20.19
2017-09-06T03:30:46.782Z,20.19
2017-09-06T03:31:18.431Z,20.19
2017-09-06T03:31:50.073Z,20.18
2017-09-06T03:32:21.717Z,20.19
2017-09-06T03:32:53.601Z,20.19
2017-09-06T03:33:25.249Z,20.19
2017-09-06T03:33:56.926Z,20.19
2017-09-06T03:34:28.617Z,20.19
2017-09-06T03:35:00.517Z,20.19
2017-09-06T03:35:32.169Z,20.19
2017-09-06T03:36:03.818Z,20.18
2017-09-06T03:36:35.462Z,20.19
2017-09-06T03:37:07.110Z,20.19
2017-09-06T03:37:38.752Z,20.19
2017-09-06T03:38:10.393Z,20.18
2017-09-06T03:38:42.037Z,20.19
2017-09-06T03:39:13.681Z,20.19
2017-09-06T03:39:45.320Z,20.18
2017-09-06T03:40:17.179Z,20.17
2017-09-06T03:40:48.823Z,20.18
2017-09-06T03:41:20.469Z,20.18
2017-09-06T03:41:52.125Z,20.19
2017-09-06T03:42:23.772Z,20.19
2017-09-06T03:42:55.425Z,20.19
2017-09-06T03:43:27.096Z,20.18
2017-09-06T03:43:58.745Z,20.19
2017-09-06T03:44:30.389Z,20.19
2017-09-06T03:45:02.033Z,20.19
2017-09-06T03:45:33.721Z,20.19
2017-09-06T03:46:05.376Z,20.20
2017-09-06T03:46:37.254Z,20.20
2017-09-06T03:47:09.134Z,20.19
2017-09-06T03:47:40.781Z,20.19
2017-09-06T03:48:12.426Z,20.19
2017-09-06T03:48:44.073Z,20.18
2017-09-06T03:49:15.725Z,20.17
2017-09-06T03:49:47.412Z,20.17
2017-09-06T03:50:19.105Z,20.18
2017-09-06T03:50:50.757Z,20.18
2017-09-06T03:51:22.597Z,20.18
2017-09-06T03:51:54.241Z,20.17
2017-09-06T03:52:25.885Z,20.17
2017-09-06T03:52:57.536Z,20.18
2017-09-06T03:53:29.185Z,20.18
2017-09-06T03:54:00.873Z,20.17
2017-09-06T03:54:32.521Z,20.17
2017-09-06T03:55:04.166Z,20.16
2017-09-06T03:55:35.854Z,20.17
2017-09-06T03:56:07.526Z,20.17
2017-09-06T03:56:39.213Z,20.18
2017-09-06T03:57:10.853Z,20.17
2017-09-06T03:57:42.497Z,20.18
2017-09-06T03:58:14.146Z,20.18
2017-09-06T03:58:45.795Z,20.17
2017-09-06T03:59:17.441Z,20.17
2017-09-06T03:59:49.222Z,20.18
2017-09-06T04:00:20.869Z,20.17
2017-09-06T04:00:52.601Z,20.18
2017-09-06T04:01:24.442Z,20.18
2017-09-06T04:01:56.405Z,20.17
2017-09-06T04:02:28.354Z,20.17
2017-09-06T04:03:00.005Z,20.19
2017-09-06T04:03:31.649Z,20.20
2017-09-06T04:04:03.479Z,20.18
2017-09-06T04:04:35.424Z,20.18
2017-09-06T04:05:07.207Z,20.17
2017-09-06T04:05:38.861Z,20.17
2017-09-06T04:06:10.769Z,20.17
2017-09-06T04:06:42.718Z,20.18
2017-09-06T04:07:14.667Z,20.17
2017-09-06T04:07:46.317Z,20.17
2017-09-06T04:08:17.966Z,20.18
2017-09-06T04:08:49.901Z,20.16
2017-09-06T04:09:21.746Z,20.17
2017-09-06T04:09:53.492Z,20.17
2017-09-06T04:10:25.145Z,20.17
2017-09-06T04:10:56.791Z,20.17
2017-09-06T04:11:28.724Z,20.17
2017-09-06T04:12:00.410Z,20.17
2017-09-06T04:12:32.062Z,20.16
2017-09-06T04:13:03.713Z,20.16
2017-09-06T04:13:35.365Z,20.15
2017-09-06T04:14:07.206Z,20.15
2017-09-06T04:14:38.880Z,20.16
2017-09-06T04:15:10.533Z,20.16
2017-09-06T04:15:42.229Z,20.16
2017-09-06T04:16:14.116Z,20.16
2017-09-06T04:16:45.765Z,20.16
2017-09-06T04:17:17.425Z,20.13
2017-09-06T04:17:49.069Z,20.17
2017-09-06T04:18:20.716Z,20.18
2017-09-06T04:18:52.361Z,20.18
2017-09-06T04:19:24.001Z,20.17
2017-09-06T04:19:55.645Z,20.18
2017-09-06T04:20:27.285Z,20.16
2017-09-06T04:20:59.201Z,20.17
2017-09-06T04:21:30.849Z,20.17
2017-09-06T04:22:02.493Z,20.17
2017-09-06T04:22:34.141Z,20.19
2017-09-06T04:23:05.793Z,20.18
2017-09-06T04:23:37.717Z,20.19
2017-09-06T04:24:09.599Z,20.18
2017-09-06T04:24:41.262Z,20.17
2017-09-06T04:25:12.905Z,20.20
2017-09-06T04:25:44.553Z,20.22
2017-09-06T04:26:16.245Z,20.22
2017-09-06T04:26:47.889Z,20.22
2017-09-06T04:27:19.537Z,20.22
2017-09-06T04:27:51.185Z,20.22
2017-09-06T04:28:22.829Z,20.21
2017-09-06T04:28:54.477Z,20.20
2017-09-06T04:29:26.152Z,20.20
2017-09-06T04:29:57.802Z,20.20
2017-09-06T04:30:29.676Z,20.19
2017-09-06T04:31:01.326Z,20.18
2017-09-06T04:31:33.267Z,20.19
2017-09-06T04:32:05.216Z,20.19
2017-09-06T04:32:36.866Z,20.19
2017-09-06T04:33:08.513Z,20.19
2017-09-06T04:33:40.160Z,20.19
2017-09-06T04:34:11.806Z,20.18
2017-09-06T04:34:43.449Z,20.18
2017-09-06T04:35:15.101Z,20.19
2017-09-06T04:35:47.016Z,20.20
2017-09-06T04:36:18.962Z,20.21
2017-09-06T04:36:50.675Z,20.20
2017-09-06T04:37:22.557Z,20.19
2017-09-06T04:37:54.506Z,20.18
2017-09-06T04:38:26.332Z,20.18
2017-09-06T04:38:58.097Z,20.18
2017-09-06T04:39:29.744Z,20.16
2017-09-06T04:40:01.394Z,20.16
2017-09-06T04:40:33.037Z,20.15
2017-09-06T04:41:04.681Z,20.15
2017-09-06T04:41:36.322Z,20.15
2017-09-06T04:42:08.017Z,20.15
2017-09-06T04:42:39.871Z,20.15
2017-09-06T04:43:11.523Z,20.16
2017-09-06T04:43:43.185Z,20.16
2017-09-06T04:44:14.830Z,20.16
2017-09-06T04:44:46.481Z,20.15
2017-09-06T04:45:18.125Z,20.15
2017-09-06T04:45:49.772Z,20.16
2017-09-06T04:46:21.416Z,20.14
2017-09-06T04:46:53.231Z,20.14
2017-09-06T04:47:24.882Z,20.14
2017-09-06T04:47:56.530Z,20.13
2017-09-06T04:48:28.173Z,20.13
2017-09-06T04:48:59.817Z,20.13
2017-09-06T04:49:31.461Z,20.13
2017-09-06T04:50:03.105Z,20.12
2017-09-06T04:50:34.749Z,20.13
2017-09-06T04:51:06.397Z,20.12
2017-09-06T04:51:38.042Z,20.12
2017-09-06T04:52:09.760Z,20.13
2017-09-06T04:52:41.411Z,20.12
2017-09-06T04:53:13.057Z,20.13
2017-09-06T04:53:44.702Z,20.12
2017-09-06T04:54:16.346Z,20.13
2017-09-06T04:54:48.002Z,20.11
2017-09-06T04:55:19.649Z,20.10
2017-09-06T04:55:51.289Z,20.11
2017-09-06T04:56:22.934Z,20.11
2017-09-06T04:56:54.586Z,20.11
2017-09-06T04:57:26.233Z,20.11
2017-09-06T04:57:57.877Z,20.11
2017-09-06T04:58:29.524Z,20.11
2017-09-06T04:59:01.414Z,20.10
2017-09-06T04:59:33.061Z,20.11
2017-09-06T05:00:04.705Z,20.10
2017-09-06T05:00:36.349Z,20.10
2017-09-06T05:01:07.997Z,20.11
2017-09-06T05:01:39.641Z,20.10
2017-09-06T05:02:11.569Z,20.11
2017-09-06T05:02:43.225Z,20.09
2017-09-06T05:03:14.869Z,20.12
2017-09-06T05:03:46.758Z,20.11
2017-09-06T05:04:18.406Z,20.11
2017-09-06T05:04:50.086Z,20.10
2017-09-06T05:05:21.929Z,20.12
2017-09-06T05:05:53.678Z,20.16
2017-09-06T05:06:25.333Z,20.17
2017-09-06T05:06:56.977Z,20.18
2017-09-06T05:07:28.621Z,20.18
2017-09-06T05:08:00.265Z,20.18
2017-09-06T05:08:31.916Z,20.21
2017-09-06T05:09:03.835Z,20.21
2017-09-06T05:09:35.784Z,20.21
2017-09-06T05:10:07.495Z,20.21
2017-09-06T05:10:39.338Z,20.21
2017-09-06T05:11:10.990Z,20.21
2017-09-06T05:11:42.660Z,20.21
2017-09-06T05:12:14.309Z,20.20
2017-09-06T05:12:45.957Z,20.22
2017-09-06T05:13:17.605Z,20.21
2017-09-06T05:13:49.252Z,20.22
2017-09-06T05:14:20.893Z,20.21
2017-09-06T05:14:52.586Z,20.21
2017-09-06T05:15:24.460Z,20.21
2017-09-06T05:15:56.111Z,20.21
2017-09-06T05:16:27.761Z,20.21
2017-09-06T05:16:59.401Z,20.20
2017-09-06T05:17:31.049Z,20.20
2017-09-06T05:18:02.698Z,20.20
2017-09-06T05:18:34.589Z,20.20
2017-09-06T05:19:06.260Z,20.21
2017-09-06T05:19:37.910Z,20.20
2017-09-06T05:20:09.557Z,20.19
2017-09-06T05:20:41.245Z,20.19
2017-09-06T05:21:12.890Z,20.19
2017-09-06T05:21:44.547Z,20.19
2017-09-06T05:22:16.420Z,20.19
2017-09-06T05:22:48.368Z,20.19
2017-09-06T05:23:20.017Z,20.19
2017-09-06T05:23:51.913Z,20.18
2017-09-06T05:24:23.561Z,20.18
2017-09-06T05:24:55.209Z,20.18
2017-09-06T05:25:26.884Z,20.18
2017-09-06T05:25:58.834Z,20.18
2017-09-06T05:26:30.716Z,20.16
2017-09-06T05:27:02.358Z,20.17
2017-09-06T05:27:34.005Z,20.18
2017-09-06T05:28:05.653Z,20.18
2017-09-06T05:28:37.305Z,20.17
2017-09-06T05:29:08.955Z,20.17
2017-09-06T05:29:40.634Z,20.17
2017-09-06T05:30:12.328Z,20.17
2017-09-06T05:30:43.973Z,20.18
2017-09-06T05:31:15.620Z,20.20
2017-09-06T05:31:47.269Z,20.19
2017-09-06T05:32:19.100Z,20.19
2017-09-06T05:32:50.745Z,20.18
2017-09-06T05:33:22.397Z,20.18
2017-09-06T05:33:54.077Z,20.18
2017-09-06T05:34:25.726Z,20.18
2017-09-06T05:34:57.433Z,20.18
2017-09-06T05:35:29.309Z,20.18
2017-09-06T05:36:01.138Z,20.19
2017-09-06T05:36:32.902Z,20.19
2017-09-06T05:37:04.563Z,20.19
2017-09-06T05:37:36.217Z,20.18
2017-09-06T05:38:07.861Z,20.18
2017-09-06T05:38:39.666Z,20.18
2017-09-06T05:39:11.417Z,20.17
2017-09-06T05:39:43.370Z,20.17
2017-09-06T05:40:15.062Z,20.17
2017-09-06T05:40:46.705Z,20.17
2017-09-06T05:41:18.356Z,20.17
2017-09-06T05:41:50.065Z,20.17
2017-09-06T05:42:21.713Z,20.17
2017-09-06T05:42:53.373Z,20.17
2017-09-06T05:43:25.017Z,20.18
2017-09-06T05:43:56.661Z,20.17
2017-09-06T05:44:28.310Z,20.18
2017-09-06T05:45:00.093Z,20.17
2017-09-06T05:45:31.745Z,20.17
2017-09-06T05:46:03.397Z,20.17
2017-09-06T05:46:35.041Z,20.16
2017-09-06T05:47:06.859Z,20.17
2017-09-06T05:47:38.609Z,20.18
2017-09-06T05:48:10.301Z,20.18
2017-09-06T05:48:41.949Z,20.18
2017-09-06T05:49:13.774Z,20.19
2017-09-06T05:49:45.421Z,20.18
2017-09-06T05:50:17.069Z,20.17
2017-09-06T05:50:48.710Z,20.17
2017-09-06T05:51:20.353Z,20.16
2017-09-06T05:51:52.001Z,20.17
2017-09-06T05:52:23.701Z,20.18
2017-09-06T05:52:55.540Z,20.20
2017-09-06T05:53:27.237Z,20.20
2017-09-06T05:53:58.885Z,20.21
2017-09-06T05:54:30.767Z,20.21
2017-09-06T05:55:02.518Z,20.21
2017-09-06T05:55:34.467Z,20.20
2017-09-06T05:56:06.416Z,20.20
2017-09-06T05:56:38.365Z,20.20
2017-09-06T05:57:10.322Z,20.20
2017-09-06T05:57:41.973Z,20.21
2017-09-06T05:58:13.618Z,20.18
2017-09-06T05:58:45.273Z,20.20
2017-09-06T05:59:16.913Z,20.20
2017-09-06T05:59:48.554Z,20.20
2017-09-06T06:00:20.473Z,20.20
2017-09-06T06:00:52.315Z,20.20
2017-09-06T06:01:24.065Z,20.19
2017-09-06T06:01:55.717Z,20.19
2017-09-06T06:02:27.362Z,20.17
2017-09-06T06:02:59.005Z,20.18
2017-09-06T06:03:30.648Z,20.16
2017-09-06T06:04:02.289Z,20.16
2017-09-06T06:04:34.155Z,20.16
2017-09-06T06:05:05.797Z,20.15
2017-09-06T06:05:37.446Z,20.15
2017-09-06T06:06:09.347Z,20.15
2017-09-06T06:06:41.097Z,20.18
2017-09-06T06:07:13.046Z,20.26
2017-09-06T06:07:44.995Z,20.31
2017-09-06T06:08:16.868Z,20.32
2017-09-06T06:08:48.586Z,20.32
2017-09-06T06:09:20.265Z,20.30
2017-09-06T06:09:52.177Z,20.29
2017-09-06T06:10:24.061Z,20.25
2017-09-06T06:10:55.733Z,20.23
2017-09-06T06:11:27.378Z,20.22
2017-09-06T06:11:59.052Z,20.21
2017-09-06T06:12:31.002Z,20.23
2017-09-06T06:13:02.953Z,20.23
2017-09-06T06:13:34.614Z,20.22
2017-09-06T06:14:06.262Z,20.22
2017-09-06T06:14:37.918Z,20.22
2017-09-06T06:15:09.826Z,20.22
2017-09-06T06:15:41.474Z,20.22
2017-09-06T06:16:13.118Z,20.21
2017-09-06T06:16:44.761Z,20.22
2017-09-06T06:17:16.410Z,20.21
2017-09-06T06:17:48.061Z,20.22
2017-09-06T06:18:19.708Z,20.21
2017-09-06T06:18:51.358Z,20.20
2017-09-06T06:19:23.002Z,20.19
2017-09-06T06:19:54.645Z,20.20
2017-09-06T06:20:26.537Z,20.19
2017-09-06T06:20:58.194Z,20.20
2017-09-06T06:21:29.841Z,20.20
2017-09-06T06:22:01.484Z,20.20
2017-09-06T06:22:33.133Z,20.21
2017-09-06T06:23:04.777Z,20.20
2017-09-06T06:23:36.421Z,20.19
2017-09-06T06:24:08.066Z,20.19
2017-09-06T06:24:39.713Z,20.19
2017-09-06T06:25:11.357Z,20.19
2017-09-06T06:25:42.997Z,20.19
2017-09-06T06:26:14.638Z,20.20
2017-09-06T06:26:46.563Z,20.20
2017-09-06T06:27:18.213Z,20.20
2017-09-06T06:27:49.865Z,20.20
2017-09-06T06:28:21.685Z,20.20
2017-09-06T06:28:53.436Z,20.20
2017-09-06T06:29:25.125Z,20.22
2017-09-06T06:29:56.778Z,20.21
2017-09-06T06:30:28.430Z,20.21
2017-09-06T06:31:00.312Z,20.22
2017-09-06T06:31:32.001Z,20.22
2017-09-06T06:32:03.649Z,20.22
2017-09-06T06:32:35.293Z,20.22
2017-09-06T06:33:06.942Z,20.22
2017-09-06T06:33:38.585Z,20.21
2017-09-06T06:34:10.241Z,20.21
2017-09-06T06:34:42.111Z,20.21
2017-09-06T06:35:14.064Z,20.21
2017-09-06T06:35:45.726Z,20.20
2017-09-06T06:36:17.565Z,20.21
2017-09-06T06:36:49.257Z,20.21
2017-09-06T06:37:20.936Z,20.21
2017-09-06T06:37:52.585Z,20.21
2017-09-06T06:38:24.233Z,20.23
2017-09-06T06:38:56.168Z,20.24
2017-09-06T06:39:27.817Z,20.23
2017-09-06T06:39:59.465Z,20.22
2017-09-06T06:40:31.110Z,20.22
2017-09-06T06:41:02.757Z,20.23
2017-09-06T06:41:34.405Z,20.23
2017-09-06T06:42:06.045Z,20.23
2017-09-06T06:42:37.689Z,20.24
2017-09-06T06:43:09.337Z,20.22
2017-09-06T06:43:40.977Z,20.22
2017-09-06T06:44:12.812Z,20.23
2017-09-06T06:44:44.462Z,20.23
2017-09-06T06:45:16.109Z,20.24
2017-09-06T06:45:47.753Z,20.23
2017-09-06T06:46:19.401Z,20.22
2017-09-06T06:46:51.042Z,20.22
2017-09-06T06:47:22.941Z,20.22
2017-09-06T06:47:54.695Z,20.21
2017-09-06T06:48:26.345Z,20.22